Time;durP1;ratioP1;P1;durP2;ratioP2;P2;SDS_P1;SDS_P2;PMS_P1;PMS_P2;Temp;Humidity;BMP_temperature;BMP_pressure;BME280_temperature;BME280_humidity;BME280_pressure;Samples;Min_cycle;Max_cycle;Signal;HPM_P1;HPM_P2
2021/07/03 00:01:41;;;;;;;9.50;7.00;;;15.30;99.90;;;;;;5058297;28;20151;-70
2021/07/03 00:04:09;;;;;;;9.30;7.03;;;15.30;99.90;;;;;;5032509;28;20036;-70
2021/07/03 00:06:34;;;;;;;11.23;6.97;;;15.30;99.90;;;;;;5038846;28;20075;-70
2021/07/03 00:09:05;;;;;;;9.25;6.80;;;15.20;99.90;;;;;;4865065;28;10000944;-69
2021/07/03 00:11:33;;;;;;;12.82;7.15;;;15.20;99.90;;;;;;5041045;28;20264;-74
2021/07/03 00:14:01;;;;;;;12.25;7.78;;;15.30;99.90;;;;;;5041982;28;20044;-74
2021/07/03 00:16:27;;;;;;;11.25;7.53;;;15.20;99.90;;;;;;5038323;28;20021;-75
2021/07/03 00:18:52;;;;;;;12.10;7.15;;;15.20;99.90;;;;;;5025618;28;20363;-74
2021/07/03 00:21:20;;;;;;;10.15;7.40;;;15.20;99.90;;;;;;5044001;28;20037;-74
2021/07/03 00:23:46;;;;;;;11.10;7.57;;;15.20;99.90;;;;;;5044225;28;20122;-74
2021/07/03 00:26:11;;;;;;;9.90;7.15;;;15.20;99.90;;;;;;5045509;28;20064;-74
2021/07/03 00:28:37;;;;;;;10.55;6.95;;;15.20;99.90;;;;;;5042874;28;20067;-74
2021/07/03 00:31:03;;;;;;;12.60;7.10;;;15.10;99.90;;;;;;5041132;28;20041;-74
2021/07/03 00:33:30;;;;;;;10.07;6.82;;;15.10;99.90;;;;;;5039432;28;20025;-74
2021/07/03 00:35:56;;;;;;;10.85;7.45;;;15.10;99.90;;;;;;5039948;28;20036;-74
2021/07/03 00:38:27;;;;;;;10.02;7.22;;;15.10;99.90;;;;;;5042632;28;20037;-74
2021/07/03 00:40:56;;;;;;;11.18;7.40;;;15.10;99.90;;;;;;5044918;28;20989;-74
2021/07/03 00:43:22;;;;;;;10.38;7.30;;;15.10;99.90;;;;;;5041019;28;20025;-74
2021/07/03 00:45:51;;;;;;;9.77;7.22;;;15.10;99.90;;;;;;5042613;28;20044;-74
2021/07/03 00:48:16;;;;;;;9.75;7.40;;;15.10;99.90;;;;;;5026206;28;20029;-71
2021/07/03 00:50:45;;;;;;;12.68;8.43;;;15.10;99.90;;;;;;5014779;28;20032;-71
2021/07/03 00:53:10;;;;;;;11.00;8.15;;;15.10;99.90;;;;;;5025048;28;20064;-74
2021/07/03 00:55:38;;;;;;;10.98;7.72;;;15.00;99.90;;;;;;5040287;28;20417;-74
2021/07/03 00:58:03;;;;;;;9.85;7.53;;;15.00;99.90;;;;;;5032112;28;20078;-74
2021/07/03 01:00:29;;;;;;;11.57;7.80;;;15.00;99.90;;;;;;5043625;28;20034;-74
2021/07/03 01:02:55;;;;;;;10.15;7.25;;;15.00;99.90;;;;;;5040928;28;20437;-74
2021/07/03 01:05:23;;;;;;;11.65;7.45;;;14.90;99.90;;;;;;5041331;28;20029;-74
2021/07/03 01:07:49;;;;;;;11.07;7.65;;;14.90;99.90;;;;;;5036344;28;20438;-74
2021/07/03 01:10:22;;;;;;;10.73;7.38;;;14.90;99.90;;;;;;5040602;28;20040;-74
2021/07/03 01:12:48;;;;;;;12.63;7.63;;;14.90;99.90;;;;;;5040079;28;20053;-74
2021/07/03 01:15:16;;;;;;;10.25;7.43;;;14.90;99.90;;;;;;5038692;28;20404;-74
2021/07/03 01:17:44;;;;;;;10.95;7.40;;;14.90;99.90;;;;;;5040247;28;20044;-74
2021/07/03 01:20:11;;;;;;;10.00;6.82;;;14.90;99.90;;;;;;5043063;28;20707;-74
2021/07/03 01:22:37;;;;;;;11.98;7.60;;;14.90;99.90;;;;;;5054050;28;20041;-74
2021/07/03 01:25:04;;;;;;;10.52;7.00;;;14.90;99.90;;;;;;5036561;28;20049;-74
2021/07/03 01:27:29;;;;;;;14.35;7.43;;;14.90;99.90;;;;;;5034038;28;20033;-74
2021/07/03 01:29:58;;;;;;;9.50;7.18;;;14.90;99.90;;;;;;5003665;28;20038;-74
2021/07/03 01:32:24;;;;;;;10.18;7.05;;;14.90;99.90;;;;;;5033076;28;20451;-74
2021/07/03 01:34:49;;;;;;;11.00;7.15;;;14.90;99.90;;;;;;5031109;28;20117;-74
2021/07/03 01:37:17;;;;;;;9.73;7.07;;;14.90;99.90;;;;;;5030094;28;20398;-73
2021/07/03 01:39:43;;;;;;;10.68;7.15;;;15.00;99.90;;;;;;5039426;28;20041;-73
2021/07/03 01:42:08;;;;;;;11.25;7.22;;;15.00;99.90;;;;;;5038627;28;20091;-73
2021/07/03 01:44:34;;;;;;;8.88;7.20;;;15.00;99.90;;;;;;5036710;28;20647;-73
2021/07/03 01:47:05;;;;;;;9.95;6.68;;;15.00;99.90;;;;;;5037509;28;20036;-74
2021/07/03 01:49:36;;;;;;;11.07;7.07;;;15.00;99.90;;;;;;5035728;28;20045;-74
2021/07/03 01:52:04;;;;;;;10.52;7.32;;;15.00;99.90;;;;;;5023948;28;20030;-74
2021/07/03 01:54:30;;;;;;;9.57;7.20;;;15.00;99.90;;;;;;5038998;28;20348;-74
2021/07/03 01:57:01;;;;;;;13.00;6.90;;;15.00;99.90;;;;;;5035546;28;20033;-74
2021/07/03 01:59:33;;;;;;;10.80;6.95;;;15.00;99.90;;;;;;5037395;28;20383;-74
2021/07/03 02:02:00;;;;;;;9.40;6.75;;;14.90;99.90;;;;;;5037951;28;20071;-73
2021/07/03 02:04:29;;;;;;;10.18;6.60;;;14.90;99.90;;;;;;5034830;28;20039;-74
2021/07/03 02:06:54;;;;;;;9.50;7.15;;;14.90;99.90;;;;;;5036123;28;20033;-73
2021/07/03 02:09:20;;;;;;;11.20;7.00;;;14.90;99.90;;;;;;5036907;28;20029;-74
2021/07/03 02:11:46;;;;;;;9.73;6.95;;;14.90;99.90;;;;;;5034385;28;20037;-74
2021/07/03 02:14:14;;;;;;;10.07;7.40;;;14.80;99.90;;;;;;5038177;28;20037;-74
2021/07/03 02:16:40;;;;;;;11.75;7.30;;;14.80;99.90;;;;;;5038475;28;20051;-73
2021/07/03 02:19:06;;;;;;;12.23;7.22;;;14.80;99.90;;;;;;5035461;28;20041;-73
2021/07/03 02:21:31;;;;;;;10.48;6.43;;;14.80;99.90;;;;;;5036987;28;20114;-74
2021/07/03 02:23:58;;;;;;;10.50;6.65;;;14.80;99.90;;;;;;5034067;28;20183;-73
2021/07/03 02:26:24;;;;;;;8.20;6.20;;;14.80;99.90;;;;;;5007991;28;20108;-74
2021/07/03 02:28:52;;;;;;;11.05;6.88;;;14.80;99.90;;;;;;5033861;28;20053;-73
2021/07/03 02:31:20;;;;;;;9.90;6.97;;;14.70;99.90;;;;;;5038830;28;20043;-74
2021/07/03 02:33:46;;;;;;;9.35;6.45;;;14.70;99.90;;;;;;5018868;28;20068;-74
2021/07/03 02:36:12;;;;;;;8.18;6.43;;;14.70;99.90;;;;;;5017356;28;20477;-74
2021/07/03 02:38:38;;;;;;;12.15;6.85;;;14.60;99.90;;;;;;5038175;28;20033;-74
2021/07/03 02:41:04;;;;;;;9.20;6.28;;;14.60;99.90;;;;;;5041636;28;20429;-73
2021/07/03 02:43:29;;;;;;;9.23;5.97;;;14.70;99.90;;;;;;5037514;28;20029;-73
2021/07/03 02:45:55;;;;;;;10.23;6.57;;;14.60;99.90;;;;;;5037301;28;20092;-74
2021/07/03 02:48:20;;;;;;;8.77;6.70;;;14.60;99.90;;;;;;5037606;28;20108;-74
2021/07/03 02:50:46;;;;;;;11.45;7.07;;;14.60;99.90;;;;;;5037583;28;20028;-74
2021/07/03 02:53:14;;;;;;;8.40;6.10;;;14.60;99.90;;;;;;5036626;28;20115;-74
2021/07/03 02:55:42;;;;;;;10.40;6.55;;;14.60;99.90;;;;;;5036763;28;20025;-74
2021/07/03 02:58:10;;;;;;;8.35;5.93;;;14.50;99.90;;;;;;5033666;28;21593;-74
2021/07/03 03:00:36;;;;;;;9.25;6.57;;;14.50;99.90;;;;;;5037530;28;20478;-74
2021/07/03 03:03:01;;;;;;;9.98;6.50;;;14.50;99.90;;;;;;5037190;28;20044;-74
2021/07/03 03:05:27;;;;;;;10.43;6.32;;;14.50;99.90;;;;;;5036640;28;20043;-74
2021/07/03 03:07:53;;;;;;;9.13;6.28;;;14.50;99.90;;;;;;5037102;28;20025;-74
2021/07/03 03:10:21;;;;;;;9.18;6.60;;;14.50;99.90;;;;;;5037689;28;20036;-74
2021/07/03 03:12:47;;;;;;;9.25;6.60;;;14.40;99.90;;;;;;5036828;28;20029;-74
2021/07/03 03:15:16;;;;;;;10.77;6.70;;;14.40;99.90;;;;;;5036775;28;20029;-74
2021/07/03 03:17:41;;;;;;;10.50;6.53;;;14.40;99.90;;;;;;5035128;28;20394;-73
2021/07/03 03:20:09;;;;;;;8.02;6.45;;;14.40;99.90;;;;;;5016165;28;20041;-74
2021/07/03 03:22:37;;;;;;;9.13;6.75;;;14.40;99.90;;;;;;5033573;28;20059;-74
2021/07/03 03:25:06;;;;;;;10.90;6.95;;;14.30;99.90;;;;;;5036988;28;21958;-74
2021/07/03 03:27:37;;;;;;;10.18;6.53;;;14.30;99.90;;;;;;5036127;28;20028;-74
2021/07/03 03:30:05;;;;;;;10.95;6.97;;;14.30;99.90;;;;;;5036886;28;20063;-74
2021/07/03 03:32:31;;;;;;;9.40;7.03;;;14.30;99.90;;;;;;5036161;28;20112;-74
2021/07/03 03:35:01;;;;;;;10.48;7.35;;;14.30;99.90;;;;;;5036830;28;20039;-74
2021/07/03 03:37:27;;;;;;;11.43;7.00;;;14.30;99.90;;;;;;5038110;28;20076;-74
2021/07/03 03:39:55;;;;;;;10.18;7.18;;;14.30;99.90;;;;;;5031929;28;20112;-74
2021/07/03 03:42:20;;;;;;;11.70;7.07;;;14.30;99.90;;;;;;5035982;28;20116;-74
2021/07/03 03:44:51;;;;;;;11.77;7.60;;;14.20;99.90;;;;;;5022788;28;20059;-74
2021/07/03 03:47:19;;;;;;;9.73;6.97;;;14.30;99.90;;;;;;5035835;28;20032;-73
2021/07/03 03:49:47;;;;;;;10.00;7.03;;;14.20;99.90;;;;;;5035775;28;20870;-74
2021/07/03 03:52:15;;;;;;;11.35;7.50;;;14.20;99.90;;;;;;5036509;28;20447;-73
2021/07/03 03:54:40;;;;;;;12.65;8.00;;;14.20;99.90;;;;;;5018480;28;20034;-74
2021/07/03 03:57:24;;;;;;;9.18;6.88;;;14.20;99.90;;;;;;5036523;28;20035;-74
2021/07/03 03:59:55;;;;;;;11.40;7.65;;;14.20;99.90;;;;;;5036605;28;20045;-74
2021/07/03 04:02:20;;;;;;;9.95;7.32;;;14.20;99.90;;;;;;5030361;28;20544;-74
2021/07/03 04:04:49;;;;;;;10.23;7.50;;;14.20;99.90;;;;;;5036369;28;20029;-74
2021/07/03 04:07:15;;;;;;;12.25;7.93;;;14.30;99.90;;;;;;5031836;28;20040;-74
2021/07/03 04:09:43;;;;;;;10.07;7.95;;;14.30;99.90;;;;;;5037033;28;20028;-74
2021/07/03 04:12:11;;;;;;;11.52;7.57;;;14.30;99.90;;;;;;5031731;28;20033;-74
2021/07/03 04:14:39;;;;;;;11.55;7.55;;;14.40;99.90;;;;;;5021731;28;20072;-73
2021/07/03 04:17:05;;;;;;;10.80;7.80;;;14.40;99.90;;;;;;5034940;28;21473;-74
2021/07/03 04:19:31;;;;;;;11.32;7.63;;;14.50;99.90;;;;;;5031419;28;20576;-74
2021/07/03 04:22:00;;;;;;;10.73;7.60;;;14.50;99.90;;;;;;5036119;28;20040;-74
2021/07/03 04:24:28;;;;;;;10.27;7.60;;;14.50;99.90;;;;;;5032284;28;20118;-74
2021/07/03 04:26:56;;;;;;;11.52;8.23;;;14.50;99.90;;;;;;5032241;28;20052;-74
2021/07/03 04:29:21;;;;;;;10.70;8.05;;;14.50;99.90;;;;;;5036088;28;20025;-74
2021/07/03 04:31:47;;;;;;;11.23;8.30;;;14.60;99.90;;;;;;5036504;28;20071;-74
2021/07/03 04:34:15;;;;;;;10.68;7.93;;;14.70;99.90;;;;;;5031225;28;20033;-73
2021/07/03 04:36:43;;;;;;;9.85;7.28;;;14.70;99.90;;;;;;5037155;28;20048;-73
2021/07/03 04:39:08;;;;;;;11.00;7.25;;;14.70;99.90;;;;;;5034861;28;20036;-74
2021/07/03 04:41:37;;;;;;;11.98;8.63;;;14.80;99.90;;;;;;5014785;28;20033;-74
2021/07/03 04:44:05;;;;;;;14.82;8.30;;;14.80;99.90;;;;;;5036124;28;20066;-74
2021/07/03 04:46:31;;;;;;;11.45;8.48;;;14.90;99.90;;;;;;5036242;28;20029;-74
2021/07/03 04:48:59;;;;;;;11.88;8.07;;;15.00;99.90;;;;;;5032226;28;20747;-74
2021/07/03 04:51:27;;;;;;;11.63;8.55;;;15.00;99.90;;;;;;5035966;28;21782;-74
2021/07/03 04:53:55;;;;;;;12.23;8.65;;;15.00;99.90;;;;;;5035478;28;20576;-74
2021/07/03 04:56:21;;;;;;;10.85;7.93;;;15.00;99.90;;;;;;5034173;28;20490;-74
2021/07/03 04:58:46;;;;;;;11.07;8.10;;;15.00;99.90;;;;;;5036340;28;20144;-74
2021/07/03 05:01:12;;;;;;;11.93;8.70;;;15.10;99.90;;;;;;5030841;28;20024;-74
2021/07/03 05:03:38;;;;;;;11.30;8.20;;;15.10;99.90;;;;;;5035460;28;20493;-74
2021/07/03 05:06:05;;;;;;;11.20;8.18;;;15.10;99.90;;;;;;5034100;28;20033;-74
2021/07/03 05:08:31;;;;;;;12.27;8.90;;;15.10;99.90;;;;;;5035932;28;20021;-74
2021/07/03 05:10:57;;;;;;;11.43;8.55;;;15.20;99.90;;;;;;5036194;28;20037;-74
2021/07/03 05:13:22;;;;;;;12.50;8.70;;;15.20;99.90;;;;;;5040507;28;20052;-74
2021/07/03 05:15:50;;;;;;;11.82;8.77;;;15.20;99.90;;;;;;5038560;28;20378;-74
2021/07/03 05:18:16;;;;;;;11.25;8.57;;;15.20;99.90;;;;;;5040011;28;20944;-74
2021/07/03 05:20:44;;;;;;;10.65;8.30;;;15.20;99.90;;;;;;5037798;28;20041;-74
2021/07/03 05:23:09;;;;;;;13.23;8.25;;;15.30;99.90;;;;;;5038821;28;20485;-74
2021/07/03 05:25:35;;;;;;;10.80;7.97;;;15.30;99.90;;;;;;5040302;28;20057;-74
2021/07/03 05:28:01;;;;;;;13.43;8.43;;;15.30;99.90;;;;;;5038825;28;20053;-74
2021/07/03 05:30:29;;;;;;;12.15;8.32;;;15.30;99.90;;;;;;5039771;28;20116;-74
2021/07/03 05:32:57;;;;;;;11.88;8.43;;;15.30;99.90;;;;;;5038485;28;20435;-74
2021/07/03 05:35:22;;;;;;;14.55;8.75;;;15.30;99.90;;;;;;5039372;28;20067;-74
2021/07/03 05:37:48;;;;;;;12.45;8.38;;;15.30;99.90;;;;;;5039412;28;20029;-74
2021/07/03 05:40:17;;;;;;;10.95;8.18;;;15.30;99.90;;;;;;5038997;28;20425;-74
2021/07/03 05:42:43;;;;;;;11.35;8.63;;;15.30;99.90;;;;;;5039743;28;20070;-74
2021/07/03 05:45:09;;;;;;;11.65;8.50;;;15.30;99.90;;;;;;5034057;28;20025;-74
2021/07/03 05:47:35;;;;;;;10.07;7.80;;;15.30;99.90;;;;;;5039022;28;20496;-74
2021/07/03 05:50:00;;;;;;;10.77;8.23;;;15.40;99.90;;;;;;5038630;28;20041;-74
2021/07/03 05:52:26;;;;;;;11.20;8.52;;;15.40;99.90;;;;;;5038775;28;20033;-74
2021/07/03 05:54:52;;;;;;;11.43;8.50;;;15.40;99.90;;;;;;5018862;28;20112;-74
2021/07/03 05:57:19;;;;;;;12.05;8.80;;;15.40;99.90;;;;;;5037999;28;20047;-74
2021/07/03 05:59:45;;;;;;;11.50;7.88;;;15.40;99.90;;;;;;5039351;28;20498;-73
2021/07/03 06:02:11;;;;;;;11.65;8.93;;;15.40;99.90;;;;;;5038922;28;20055;-74
2021/07/03 06:04:39;;;;;;;12.13;8.40;;;15.50;99.90;;;;;;5038628;28;20039;-74
2021/07/03 06:07:04;;;;;;;10.65;8.60;;;15.50;99.90;;;;;;5038255;28;20041;-74
2021/07/03 06:09:32;;;;;;;11.70;8.68;;;15.50;99.90;;;;;;5037535;28;20082;-74
2021/07/03 06:11:58;;;;;;;11.85;8.15;;;15.50;99.90;;;;;;5039000;28;20800;-74
2021/07/03 06:14:23;;;;;;;12.25;8.68;;;15.60;99.90;;;;;;5037101;28;20041;-74
2021/07/03 06:16:49;;;;;;;10.85;8.50;;;15.60;99.90;;;;;;5037210;28;20037;-74
2021/07/03 06:19:20;;;;;;;10.13;7.63;;;15.70;99.90;;;;;;5039172;28;20029;-74
2021/07/03 06:21:48;;;;;;;10.85;8.55;;;15.70;99.90;;;;;;5038399;28;20047;-74
2021/07/03 06:24:13;;;;;;;12.07;8.15;;;15.70;99.90;;;;;;5025267;28;20041;-74
2021/07/03 06:26:43;;;;;;;12.10;8.68;;;15.80;99.90;;;;;;5037792;28;20029;-74
2021/07/03 06:29:11;;;;;;;11.23;8.63;;;15.80;99.90;;;;;;5037320;28;20466;-74
2021/07/03 06:31:37;;;;;;;11.07;8.10;;;15.90;99.90;;;;;;5038130;28;20045;-74
2021/07/03 06:34:05;;;;;;;11.73;7.75;;;15.90;99.90;;;;;;5038764;28;20469;-74
2021/07/03 06:36:30;;;;;;;10.98;8.00;;;16.00;99.90;;;;;;5037885;28;20029;-74
2021/07/03 06:38:58;;;;;;;12.00;8.52;;;16.00;99.90;;;;;;5037647;28;20048;-74
2021/07/03 06:41:24;;;;;;;10.93;8.15;;;16.10;99.90;;;;;;5034145;28;20043;-74
2021/07/03 06:43:50;;;;;;;12.20;8.57;;;16.10;99.90;;;;;;5037494;28;20029;-74
2021/07/03 06:46:15;;;;;;;11.13;8.52;;;16.20;99.90;;;;;;5034161;28;20037;-74
2021/07/03 06:48:43;;;;;;;12.27;8.50;;;16.30;99.90;;;;;;5036742;28;20031;-74
2021/07/03 06:51:09;;;;;;;11.30;8.30;;;16.30;99.90;;;;;;5037660;28;20033;-74
2021/07/03 06:53:39;;;;;;;11.50;8.60;;;16.40;99.90;;;;;;5036916;28;20056;-74
2021/07/03 06:56:07;;;;;;;11.13;9.15;;;16.40;99.90;;;;;;5037293;28;20729;-74
2021/07/03 06:58:33;;;;;;;11.68;9.18;;;16.50;99.90;;;;;;5016720;28;20037;-74
2021/07/03 07:00:58;;;;;;;12.77;8.90;;;16.50;99.90;;;;;;5033542;28;20032;-74
2021/07/03 07:03:24;;;;;;;11.13;8.27;;;16.60;99.90;;;;;;5042762;28;20044;-74
2021/07/03 07:05:54;;;;;;;11.30;9.05;;;16.70;99.90;;;;;;5040472;28;20461;-74
2021/07/03 07:08:22;;;;;;;10.57;8.45;;;16.70;99.90;;;;;;5037197;28;20128;-74
2021/07/03 07:10:50;;;;;;;11.32;8.82;;;16.90;99.90;;;;;;5019158;28;20115;-74
2021/07/03 07:13:15;;;;;;;12.10;8.75;;;16.90;99.90;;;;;;5037339;28;20090;-74
2021/07/03 07:15:41;;;;;;;11.40;8.48;;;17.00;99.90;;;;;;5036691;28;20029;-74
2021/07/03 07:18:07;;;;;;;13.15;9.43;;;17.00;99.90;;;;;;5036485;28;20104;-74
2021/07/03 07:20:32;;;;;;;11.60;9.00;;;17.10;99.90;;;;;;5035607;28;20036;-74
2021/07/03 07:22:58;;;;;;;11.40;8.95;;;17.20;99.90;;;;;;5039317;28;20043;-74
2021/07/03 07:25:24;;;;;;;11.70;9.00;;;17.30;99.90;;;;;;5036603;28;20048;-73
2021/07/03 07:27:51;;;;;;;13.13;9.35;;;17.40;99.90;;;;;;5035676;28;20670;-74
2021/07/03 07:30:20;;;;;;;11.32;9.40;;;17.50;99.90;;;;;;5036996;28;20040;-74
2021/07/03 07:32:46;;;;;;;11.90;9.65;;;17.70;99.90;;;;;;5036425;28;20052;-74
2021/07/03 07:35:12;;;;;;;12.50;10.25;;;17.80;99.90;;;;;;5036886;28;20032;-74
2021/07/03 07:37:41;;;;;;;15.70;10.52;;;17.90;99.90;;;;;;5035368;28;20126;-74
2021/07/03 07:40:08;;;;;;;12.90;9.80;;;18.00;99.90;;;;;;5032642;28;20040;-74
2021/07/03 07:42:33;;;;;;;13.35;9.95;;;18.10;99.90;;;;;;5033230;28;20410;-74
2021/07/03 07:45:01;;;;;;;11.15;9.35;;;18.30;99.90;;;;;;5031381;28;20037;-74
2021/07/03 07:47:29;;;;;;;12.93;9.73;;;18.60;99.90;;;;;;5036354;28;20123;-74
2021/07/03 07:49:56;;;;;;;11.77;9.63;;;18.80;99.90;;;;;;5036484;28;20025;-74
2021/07/03 07:52:24;;;;;;;13.13;10.13;;;19.20;99.90;;;;;;5036391;28;20417;-74
2021/07/03 07:54:55;;;;;;;12.43;9.95;;;19.60;99.90;;;;;;5032409;28;20091;-73
2021/07/03 07:57:21;;;;;;;13.98;10.20;;;19.70;99.90;;;;;;5036302;28;20032;-74
2021/07/03 07:59:49;;;;;;;13.93;9.75;;;19.90;99.90;;;;;;5036024;28;20028;-74
2021/07/03 08:02:17;;;;;;;12.60;9.98;;;20.30;99.90;;;;;;5036410;28;20044;-74
2021/07/03 08:04:43;;;;;;;14.38;11.20;;;20.60;99.90;;;;;;5035354;28;20071;-74
2021/07/03 08:07:11;;;;;;;11.77;10.10;;;20.80;99.90;;;;;;5035470;28;20213;-74
2021/07/03 08:09:39;;;;;;;12.18;10.43;;;21.10;99.90;;;;;;5036402;28;20155;-73
2021/07/03 08:12:05;;;;;;;13.07;10.30;;;21.40;99.90;;;;;;4683893;28;10000260;-74
2021/07/03 08:14:30;;;;;;;13.35;10.90;;;21.50;99.90;;;;;;5038014;28;20044;-70
2021/07/03 08:16:56;;;;;;;14.32;10.93;;;21.80;99.90;;;;;;5035337;28;20040;-69
2021/07/03 08:19:23;;;;;;;13.75;11.25;;;21.90;99.90;;;;;;5035991;28;20026;-70
2021/07/03 08:21:57;;;;;;;13.95;10.40;;;22.00;99.90;;;;;;5035714;28;20043;-70
2021/07/03 08:24:25;;;;;;;14.25;10.93;;;22.10;99.90;;;;;;5019417;28;20049;-71
2021/07/03 08:26:51;;;;;;;13.00;10.10;;;22.30;99.90;;;;;;5033739;28;20025;-70
2021/07/03 08:29:19;;;;;;;16.13;11.82;;;22.50;99.90;;;;;;5035710;28;20025;-70
2021/07/03 08:31:44;;;;;;;13.07;10.52;;;22.50;99.90;;;;;;5036749;28;20124;-70
2021/07/03 08:34:10;;;;;;;13.93;12.13;;;22.60;99.90;;;;;;5039190;28;20526;-70
2021/07/03 08:36:35;;;;;;;14.68;11.38;;;22.70;99.90;;;;;;5036150;28;20036;-70
2021/07/03 08:39:01;;;;;;;15.38;11.68;;;22.80;99.90;;;;;;5036376;28;20699;-71
2021/07/03 08:41:27;;;;;;;12.85;10.90;;;22.80;99.90;;;;;;5036477;28;20116;-70
2021/07/03 08:43:52;;;;;;;15.05;11.07;;;22.90;99.90;;;;;;5018987;28;20143;-70
2021/07/03 08:46:21;;;;;;;11.70;10.50;;;23.00;99.90;;;;;;5031573;28;20446;-70
2021/07/03 08:48:52;;;;;;;14.32;12.13;;;23.20;99.90;;;;;;5045041;28;20043;-71
2021/07/03 08:51:17;;;;;;;14.68;11.95;;;23.30;99.90;;;;;;5037934;28;20029;-71
2021/07/03 08:53:43;;;;;;;13.07;11.10;;;23.30;99.90;;;;;;5041871;28;20035;-70
2021/07/03 08:56:09;;;;;;;13.85;11.38;;;23.40;99.90;;;;;;5041737;28;20158;-67
2021/07/03 08:58:35;;;;;;;15.85;12.68;;;23.40;99.90;;;;;;5033852;28;20100;-67
2021/07/03 09:01:05;;;;;;;14.27;12.70;;;23.30;99.90;;;;;;5050420;28;20139;-67
2021/07/03 09:03:30;;;;;;;13.10;11.35;;;23.30;95.70;;;;;;5033093;28;20064;-71
2021/07/03 09:05:58;;;;;;;13.57;11.95;;;23.30;99.90;;;;;;5045442;28;20033;-71
2021/07/03 09:08:25;;;;;;;14.00;12.27;;;23.30;99.90;;;;;;5046805;28;20673;-71
2021/07/03 09:11:12;;;;;;;13.60;12.10;;;23.40;99.90;;;;;;5034973;28;20063;-70
2021/07/03 09:13:38;;;;;;;14.32;12.25;;;23.40;99.90;;;;;;5048895;28;20527;-70
2021/07/03 09:16:04;;;;;;;13.68;11.30;;;23.40;96.80;;;;;;5046318;28;20462;-71
2021/07/03 09:18:33;;;;;;;16.17;14.43;;;23.30;99.90;;;;;;5042774;28;20029;-66
2021/07/03 09:21:02;;;;;;;21.15;18.95;;;23.40;99.90;;;;;;5046871;28;20037;-67
2021/07/03 09:23:35;;;;;;;15.68;12.38;;;23.40;99.90;;;;;;5028191;28;20086;-67
2021/07/03 09:26:11;;;;;;;14.00;11.13;;;23.40;97.70;;;;;;5029031;28;20061;-70
2021/07/03 09:28:42;;;;;;;13.98;12.40;;;23.40;98.50;;;;;;5046160;28;20032;-71
2021/07/03 09:31:09;;;;;;;13.38;11.20;;;23.30;89.80;;;;;;5048410;28;20025;-70
2021/07/03 09:33:46;;;;;;;13.85;11.18;;;23.40;97.30;;;;;;5045377;28;20059;-71
2021/07/03 09:36:29;;;;;;;13.95;11.35;;;23.40;99.30;;;;;;5046850;28;20051;-71
2021/07/03 09:38:56;;;;;;;13.55;10.70;;;23.40;94.00;;;;;;5046381;28;20051;-71
2021/07/03 09:41:37;;;;;;;14.80;10.82;;;23.40;97.20;;;;;;5046477;28;20021;-70
2021/07/03 09:44:08;;;;;;;12.57;10.20;;;23.50;97.10;;;;;;5045554;28;20021;-70
2021/07/03 09:46:37;;;;;;;12.85;10.43;;;23.60;99.90;;;;;;5047788;28;20036;-71
2021/07/03 09:49:09;;;;;;;14.20;10.88;;;23.70;99.70;;;;;;5048266;28;20059;-73
2021/07/03 09:51:47;;;;;;;13.82;10.55;;;23.70;97.50;;;;;;5046592;28;20025;-71
2021/07/03 09:54:17;;;;;;;12.38;10.88;;;23.60;89.70;;;;;;5048575;28;20017;-73
2021/07/03 09:56:43;;;;;;;12.32;10.65;;;23.60;88.40;;;;;;5043506;28;20051;-70
2021/07/03 09:59:09;;;;;;;12.15;10.65;;;23.70;90.90;;;;;;5042432;28;20451;-70
2021/07/03 10:01:38;;;;;;;11.77;9.40;;;23.70;92.10;;;;;;5041354;28;20025;-68
2021/07/03 10:04:04;;;;;;;13.18;9.38;;;23.80;94.90;;;;;;5042613;28;20346;-68
2021/07/03 10:07:12;;;;;;;12.65;8.95;;;24.00;98.50;;;;;;5043466;28;20104;-69
2021/07/03 10:09:52;;;;;;;10.82;9.70;;;24.20;97.90;;;;;;5033864;28;20041;-73
2021/07/03 10:12:31;;;;;;;10.30;8.52;;;24.20;83.10;;;;;;5029764;28;20079;-71
2021/07/03 10:14:59;;;;;;;12.48;9.25;;;24.30;97.10;;;;;;5040389;28;20033;-73
2021/07/03 10:17:28;;;;;;;11.73;9.57;;;24.40;96.30;;;;;;5044355;28;20450;-73
2021/07/03 10:19:57;;;;;;;10.45;8.40;;;24.30;87.40;;;;;;5044130;28;20033;-72
2021/07/03 10:22:27;;;;;;;11.55;8.35;;;24.00;91.50;;;;;;5042723;28;20021;-70
2021/07/03 10:25:11;;;;;;;9.30;7.80;;;23.90;93.20;;;;;;5041316;28;20119;-70
2021/07/03 10:27:47;;;;;;;10.90;7.35;;;23.90;92.30;;;;;;5041097;28;20113;-70
2021/07/03 10:30:27;;;;;;;10.73;7.88;;;24.10;93.20;;;;;;5044948;28;20068;-71
2021/07/03 10:33:00;;;;;;;9.85;7.80;;;24.10;96.10;;;;;;5045578;28;20108;-72
2021/07/03 10:35:26;;;;;;;9.68;7.55;;;24.00;80.40;;;;;;5032403;28;20075;-70
2021/07/03 10:37:52;;;;;;;7.93;7.13;;;23.90;86.00;;;;;;5031405;28;20041;-70
2021/07/03 10:40:22;;;;;;;8.45;7.03;;;24.00;92.00;;;;;;5040189;28;20026;-70
2021/07/03 10:42:48;;;;;;;8.95;7.00;;;24.10;91.70;;;;;;5042223;28;20025;-71
2021/07/03 10:45:24;;;;;;;8.93;7.50;;;24.00;91.20;;;;;;5039114;28;20120;-67
2021/07/03 10:47:53;;;;;;;12.13;10.88;;;23.80;90.60;;;;;;5040270;28;20048;-67
2021/07/03 10:50:20;;;;;;;10.40;8.13;;;23.80;94.00;;;;;;5031140;28;20051;-71
2021/07/03 10:52:46;;;;;;;10.80;7.88;;;23.80;94.60;;;;;;5025297;28;20025;-71
2021/07/03 10:55:12;;;;;;;8.27;7.05;;;23.60;86.90;;;;;;5042061;28;20041;-71
2021/07/03 10:57:45;;;;;;;9.93;7.30;;;23.70;91.30;;;;;;5040388;28;20275;-71
2021/07/03 11:00:11;;;;;;;7.95;7.03;;;23.70;94.90;;;;;;4690420;28;9999788;-71
2021/07/03 11:02:37;;;;;;;9.35;6.82;;;23.60;96.40;;;;;;5035641;28;20103;-70
2021/07/03 11:05:14;;;;;;;9.18;6.78;;;23.60;91.90;;;;;;5012198;28;20029;-71
2021/07/03 11:07:46;;;;;;;8.82;6.88;;;23.50;93.50;;;;;;5044479;28;20029;-71
2021/07/03 11:10:19;;;;;;;8.80;6.75;;;23.50;96.00;;;;;;5028593;28;20477;-71
2021/07/03 11:12:52;;;;;;;10.35;7.60;;;23.50;95.20;;;;;;5036796;28;20042;-71
2021/07/03 11:15:23;;;;;;;8.65;6.90;;;23.50;99.50;;;;;;5040324;28;20025;-72
2021/07/03 11:17:49;;;;;;;9.75;7.25;;;23.50;99.40;;;;;;5043376;28;20125;-73
2021/07/03 11:20:46;;;;;;;8.65;6.93;;;23.50;97.90;;;;;;5037389;28;20499;-67
2021/07/03 11:23:12;;;;;;;8.40;7.40;;;23.40;92.80;;;;;;5035049;28;20055;-67
2021/07/03 11:25:43;;;;;;;8.32;7.15;;;23.20;96.50;;;;;;5037340;28;20068;-71
2021/07/03 11:28:18;;;;;;;10.05;7.20;;;23.20;96.30;;;;;;5038610;28;20110;-73
2021/07/03 11:30:51;;;;;;;9.00;6.93;;;23.30;99.80;;;;;;5038444;28;20050;-72
2021/07/03 11:33:16;;;;;;;8.52;6.97;;;23.30;99.90;;;;;;5037045;28;20029;-71
2021/07/03 11:35:46;;;;;;;12.60;8.23;;;23.40;99.80;;;;;;5039283;28;20048;-71
2021/07/03 11:38:13;;;;;;;8.57;7.50;;;23.60;95.80;;;;;;5034452;28;20043;-71
2021/07/03 11:40:41;;;;;;;9.77;7.78;;;23.80;95.70;;;;;;5026273;28;20036;-72
2021/07/03 11:43:07;;;;;;;8.82;7.80;;;23.80;79.40;;;;;;5037800;28;20053;-71
2021/07/03 11:45:35;;;;;;;8.93;7.10;;;23.90;85.70;;;;;;5020872;28;20026;-71
2021/07/03 11:48:06;;;;;;;9.98;7.03;;;24.00;84.50;;;;;;5025759;28;20029;-71
2021/07/03 11:50:39;;;;;;;8.82;6.93;;;24.30;92.50;;;;;;5037903;28;20364;-72
2021/07/03 11:53:05;;;;;;;8.77;7.60;;;24.50;93.80;;;;;;5039529;28;20034;-71
2021/07/03 11:55:35;;;;;;;8.65;6.80;;;24.40;78.30;;;;;;5025730;28;20037;-71
2021/07/03 11:58:03;;;;;;;9.50;6.95;;;24.60;81.50;;;;;;5043007;28;20025;-72
2021/07/03 12:00:35;;;;;;;9.73;7.00;;;24.70;85.60;;;;;;5020263;28;20025;-71
2021/07/03 12:03:02;;;;;;;8.75;7.57;;;25.00;90.70;;;;;;5027602;28;20028;-71
2021/07/03 12:05:32;;;;;;;10.07;7.57;;;25.00;89.20;;;;;;5018399;28;20025;-71
2021/07/03 12:08:02;;;;;;;8.38;6.97;;;24.90;79.60;;;;;;5024255;28;20037;-71
2021/07/03 12:10:32;;;;;;;8.70;7.38;;;24.80;82.40;;;;;;5042215;28;20044;-71
2021/07/03 12:12:58;;;;;;;8.95;7.10;;;24.70;89.30;;;;;;5040446;28;20033;-71
2021/07/03 12:15:27;;;;;;;9.23;7.28;;;24.70;90.20;;;;;;5046477;28;20036;-71
2021/07/03 12:17:53;;;;;;;9.68;6.95;;;24.60;88.50;;;;;;5041034;28;20135;-71
2021/07/03 12:20:19;;;;;;;8.45;7.13;;;24.80;93.70;;;;;;5041282;28;20681;-71
2021/07/03 12:23:03;;;;;;;9.77;6.93;;;25.00;91.50;;;;;;5040319;28;20029;-71
2021/07/03 12:25:29;;;;;;;9.80;6.60;;;25.00;85.20;;;;;;5036981;28;20821;-71
2021/07/03 12:28:00;;;;;;;8.38;6.40;;;25.30;92.10;;;;;;5038592;28;20052;-71
2021/07/03 12:30:27;;;;;;;7.85;6.72;;;25.30;72.40;;;;;;5040557;28;20029;-66
2021/07/03 12:33:07;;;;;;;8.77;6.97;;;25.50;82.80;;;;;;5023122;28;20036;-67
2021/07/03 12:35:38;;;;;;;11.32;8.40;;;25.70;87.50;;;;;;5041359;28;20367;-71
2021/07/03 12:38:04;;;;;;;8.35;6.63;;;25.60;86.90;;;;;;5039973;28;20080;-71
2021/07/03 12:40:34;;;;;;;8.57;6.72;;;25.40;83.70;;;;;;5039611;28;20478;-71
2021/07/03 12:43:00;;;;;;;7.28;6.45;;;25.20;79.10;;;;;;5040833;28;20041;-71